Time;durP1;ratioP1;P1;durP2;ratioP2;P2;SDS_P1;SDS_P2;PMS_P1;PMS_P2;Temp;Humidity;BMP_temperature;BMP_pressure;BME280_temperature;BME280_humidity;BME280_pressure;Samples;Min_cycle;Max_cycle;Signal;HPM_P1;HPM_P2
2022/10/10 04:30:30;;;;;;;;;14.00;12.00;;;;;15.35;60.34;100932.03;5063534;27;45530;-74
2022/10/10 04:32:55;;;;;;;;;14.75;10.00;;;;;15.28;60.98;100922.59;5035268;28;45206;-74
2022/10/10 04:35:21;;;;;;;;;12.75;12.75;;;;;15.33;61.13;100935.78;5035609;28;46223;-72
2022/10/10 04:37:46;;;;;;;;;11.00;11.00;;;;;15.25;60.59;100935.41;5035551;28;45237;-74
2022/10/10 04:40:11;;;;;;;;;14.75;12.50;;;;;15.25;61.09;100930.00;5035554;28;45274;-74
2022/10/10 04:42:37;;;;;;;;;13.75;12.50;;;;;15.25;61.15;100930.88;5034278;28;45589;-73
2022/10/10 04:45:03;;;;;;;;;13.75;12.25;;;;;15.20;60.88;100927.59;5035515;28;46135;-73
2022/10/10 04:47:29;;;;;;;;;12.25;11.00;;;;;15.27;61.21;100928.06;5035641;28;45385;-73
2022/10/10 04:49:54;;;;;;;;;13.75;13.00;;;;;15.23;61.19;100940.88;5035548;28;45520;-73
2022/10/10 04:52:19;;;;;;;;;12.00;10.25;;;;;15.24;61.16;100942.63;5035316;28;45479;-73
2022/10/10 04:54:45;;;;;;;;;11.00;11.00;;;;;15.25;61.25;100941.66;5035355;28;45391;-74
2022/10/10 04:57:11;;;;;;;;;11.75;11.75;;;;;15.23;61.16;100951.69;5035434;28;45368;-73
2022/10/10 04:59:37;;;;;;;;;13.00;11.75;;;;;15.11;61.94;100918.22;5035311;28;45382;-75
2022/10/10 05:02:02;;;;;;;;;16.50;12.00;;;;;15.22;61.72;100922.09;5034957;28;45336;-73
2022/10/10 05:04:28;;;;;;;;;12.25;12.25;;;;;15.19;61.79;100928.56;5034708;28;45311;-73
2022/10/10 05:06:53;;;;;;;;;12.25;12.00;;;;;15.17;61.88;100935.88;5035078;28;45511;-73
2022/10/10 05:09:18;;;;;;;;;18.75;12.50;;;;;15.19;62.37;100936.66;5035184;28;45482;-74
2022/10/10 05:11:44;;;;;;;;;13.50;13.50;;;;;15.18;62.55;100944.84;5038643;28;45229;-76
2022/10/10 05:14:09;;;;;;;;;12.00;12.00;;;;;15.14;62.51;100942.31;5040603;28;45395;-74
2022/10/10 05:16:34;;;;;;;;;14.25;13.00;;;;;15.14;62.84;100933.38;5034666;28;45273;-76
2022/10/10 05:19:00;;;;;;;;;13.75;12.50;;;;;15.07;62.40;100945.50;5035025;28;45155;-73
2022/10/10 05:21:26;;;;;;;;;10.75;10.75;;;;;15.03;63.17;100949.38;5035280;28;45420;-74
2022/10/10 05:23:52;;;;;;;;;12.50;12.00;;;;;14.98;63.06;100949.63;5034876;28;45546;-72
2022/10/10 05:26:18;;;;;;;;;17.75;14.75;;;;;14.98;63.34;100944.22;5035187;28;45376;-73
2022/10/10 05:28:44;;;;;;;;;10.25;10.25;;;;;14.96;63.04;100951.59;5035004;28;45411;-71
2022/10/10 05:31:10;;;;;;;;;13.75;13.75;;;;;14.86;63.56;100938.72;5025154;28;45481;-73
2022/10/10 05:33:36;;;;;;;;;11.00;11.00;;;;;14.85;63.38;100942.38;5052435;28;47093;-76
2022/10/10 05:36:07;;;;;;;;;16.00;11.50;;;;;14.84;63.76;100937.94;5053616;28;45405;-72
2022/10/10 05:38:34;;;;;;;;;15.75;14.00;;;;;14.76;63.71;100923.09;5054781;28;45243;-71
2022/10/10 05:40:59;;;;;;;;;13.00;12.00;;;;;14.85;63.47;100936.97;5054775;28;45546;-70
2022/10/10 05:43:24;;;;;;;;;11.50;11.50;;;;;14.70;63.45;100917.19;5053258;28;48136;-70
2022/10/10 05:45:50;;;;;;;;;12.50;11.75;;;;;14.75;63.64;100923.16;5054500;28;45378;-71
2022/10/10 05:48:15;;;;;;;;;9.00;7.00;;;;;14.83;63.63;100926.28;5054305;28;45381;-73
2022/10/10 05:50:50;;;;;;;;;13.75;13.00;;;;;14.85;63.82;100926.19;5054650;28;45402;-72
2022/10/10 05:53:15;;;;;;;;;13.25;12.25;;;;;14.82;63.79;100929.94;5052927;28;45410;-73
2022/10/10 05:55:40;;;;;;;;;16.00;16.00;;;;;14.83;64.34;100931.66;5054600;28;46340;-72
2022/10/10 05:58:06;;;;;;;;;12.50;12.50;;;;;14.86;64.05;100930.63;5054923;28;45403;-71
2022/10/10 06:00:32;;;;;;;;;11.25;9.75;;;;;14.87;64.35;100932.38;5054491;28;45310;-72
2022/10/10 06:02:58;;;;;;;;;14.50;10.50;;;;;14.86;64.52;100934.19;5053925;28;46383;-73
2022/10/10 06:05:23;;;;;;;;;11.50;10.50;;;;;14.82;64.05;100934.47;5054322;28;45314;-70
2022/10/10 06:07:49;;;;;;;;;11.50;11.50;;;;;14.77;64.40;100930.22;5054281;28;45283;-71
2022/10/10 06:10:14;;;;;;;;;13.25;11.00;;;;;14.79;64.43;100932.84;5054127;28;45563;-71
2022/10/10 06:12:40;;;;;;;;;13.25;13.25;;;;;14.78;64.74;100928.41;5054059;28;46157;-73
2022/10/10 06:15:06;;;;;;;;;11.75;11.75;;;;;14.71;64.58;100929.72;5052530;28;45380;-73
2022/10/10 06:17:31;;;;;;;;;10.00;9.00;;;;;14.65;64.71;100930.06;5054057;28;45395;-72
2022/10/10 06:19:57;;;;;;;;;17.25;17.25;;;;;14.67;64.88;100941.66;5053962;28;45207;-72
2022/10/10 06:22:22;;;;;;;;;14.00;14.00;;;;;14.65;64.84;100948.97;5053816;28;46021;-71
2022/10/10 06:24:47;;;;;;;;;11.00;11.00;;;;;14.63;64.60;100953.59;5052468;28;45364;-71
2022/10/10 06:27:13;;;;;;;;;14.25;14.25;;;;;14.66;64.56;100961.50;5054323;28;47025;-71
2022/10/10 06:29:38;;;;;;;;;17.25;14.75;;;;;14.67;64.86;100955.16;5053950;28;45152;-71
2022/10/10 06:32:03;;;;;;;;;10.75;10.75;;;;;14.71;64.72;100954.03;5053222;28;45455;-71
2022/10/10 06:34:29;;;;;;;;;15.50;14.00;;;;;14.67;65.01;100955.16;5052784;28;45273;-71
2022/10/10 06:36:54;;;;;;;;;16.75;13.00;;;;;14.72;64.67;100970.09;5053837;28;45598;-71
2022/10/10 06:39:19;;;;;;;;;12.50;12.50;;;;;14.70;64.60;100957.69;5054119;28;46931;-72
2022/10/10 06:41:47;;;;;;;;;13.50;13.50;;;;;14.72;65.04;100970.09;5053913;28;46029;-71
2022/10/10 06:44:12;;;;;;;;;17.25;14.75;;;;;14.71;64.91;100954.88;5054020;28;45316;-72
2022/10/10 06:46:37;;;;;;;;;14.75;12.50;;;;;14.60;64.88;100940.28;5055656;28;45326;-71
2022/10/10 06:49:03;;;;;;;;;14.75;14.50;;;;;14.75;65.10;100956.44;5057581;28;45561;-72
2022/10/10 06:51:29;;;;;;;;;13.00;13.00;;;;;14.74;64.91;100964.59;5057322;28;45612;-73
2022/10/10 06:53:56;;;;;;;;;12.25;12.25;;;;;14.83;64.92;100976.69;5057384;28;45211;-73
2022/10/10 06:56:21;;;;;;;;;17.50;13.00;;;;;14.81;64.81;100968.69;5057474;28;45240;-73
2022/10/10 06:58:47;;;;;;;;;16.75;16.25;;;;;14.89;65.03;100979.88;5057383;28;45440;-72
2022/10/10 07:01:14;;;;;;;;;17.50;16.50;;;;;14.90;64.97;100983.44;5057223;28;45444;-73
2022/10/10 07:03:40;;;;;;;;;13.25;12.25;;;;;14.84;64.89;100982.00;5057052;28;45399;-74
2022/10/10 07:06:08;;;;;;;;;12.00;12.00;;;;;14.83;65.00;100979.38;5055930;28;45339;-73
2022/10/10 07:08:34;;;;;;;;;14.50;14.50;;;;;14.90;64.79;100988.84;5057686;28;45451;-73
2022/10/10 07:10:59;;;;;;;;;13.00;13.00;;;;;14.93;64.70;100996.78;5057244;28;45446;-75
2022/10/10 07:13:24;;;;;;;;;13.50;12.50;;;;;14.98;64.55;101000.94;5053878;28;45416;-73
2022/10/10 07:15:50;;;;;;;;;16.00;15.00;;;;;15.11;64.88;101015.44;5054854;28;45475;-74
2022/10/10 07:18:17;;;;;;;;;13.00;13.00;;;;;15.18;64.86;101013.25;5055915;28;45668;-74
2022/10/10 07:20:43;;;;;;;;;16.50;12.75;;;;;15.19;64.43;101009.59;5056496;28;46205;-74
2022/10/10 07:23:08;;;;;;;;;14.25;14.25;;;;;15.26;64.50;101010.06;5056297;28;45429;-73
2022/10/10 07:25:36;;;;;;;;;13.25;11.25;;;;;15.25;64.59;101009.19;5056707;28;45568;-73
2022/10/10 07:28:01;;;;;;;;;16.25;14.00;;;;;15.36;64.90;101012.13;5056287;28;45589;-74
2022/10/10 07:30:27;;;;;;;;;14.50;14.25;;;;;15.40;64.12;101013.66;5055069;28;46039;-72
2022/10/10 07:32:54;;;;;;;;;16.50;16.50;;;;;15.49;64.51;101006.81;5055997;28;45335;-73
2022/10/10 07:35:20;;;;;;;;;14.75;12.50;;;;;15.54;64.02;101003.88;5055982;28;45492;-73
2022/10/10 07:37:46;;;;;;;;;18.00;15.75;;;;;15.65;64.13;101009.50;5056540;28;45540;-73
2022/10/10 07:40:11;;;;;;;;;18.00;14.50;;;;;15.71;64.05;101015.38;5056630;28;45961;-72
2022/10/10 07:42:36;;;;;;;;;13.00;13.00;;;;;15.72;63.89;101005.44;5056547;28;45378;-74
2022/10/10 07:45:03;;;;;;;;;13.00;13.00;;;;;15.83;63.63;101017.28;5056061;28;45276;-74
2022/10/10 07:47:28;;;;;;;;;13.75;13.75;;;;;15.82;63.43;101022.81;5055409;28;45519;-72
2022/10/10 07:49:53;;;;;;;;;14.00;14.00;;;;;15.76;63.80;100999.72;5054225;28;46065;-74
2022/10/10 07:52:18;;;;;;;;;14.50;13.75;;;;;15.95;63.26;101037.28;5045571;28;45454;-74
2022/10/10 07:54:44;;;;;;;;;16.00;16.00;;;;;15.89;63.64;101029.56;5053709;28;45283;-72
2022/10/10 07:57:09;;;;;;;;;17.50;14.50;;;;;15.95;63.16;101029.16;5055821;28;45573;-75
2022/10/10 07:59:34;;;;;;;;;17.25;14.75;;;;;15.99;63.45;101024.44;5055777;28;45448;-74
2022/10/10 08:02:00;;;;;;;;;13.75;13.75;;;;;16.03;63.52;101028.69;5056097;28;45354;-71
2022/10/10 08:04:25;;;;;;;;;16.75;15.50;;;;;16.09;63.50;101023.72;5056278;28;45335;-73
2022/10/10 08:06:51;;;;;;;;;13.50;11.25;;;;;16.11;63.60;101029.91;5055946;28;45305;-73
2022/10/10 08:09:16;;;;;;;;;13.75;13.75;;;;;16.05;63.23;101010.53;5055812;28;45513;-73
2022/10/10 08:11:42;;;;;;;;;14.50;13.75;;;;;16.19;62.90;101024.00;5056357;28;45397;-73
2022/10/10 08:14:07;;;;;;;;;16.00;14.25;;;;;16.17;62.97;101034.06;5055401;28;45434;-73
2022/10/10 08:16:32;;;;;;;;;14.25;14.00;;;;;16.15;63.17;101020.66;5055840;28;45500;-71
2022/10/10 08:18:58;;;;;;;;;9.00;9.00;;;;;16.24;63.35;101032.72;5055626;28;45350;-74
2022/10/10 08:21:23;;;;;;;;;19.25;15.00;;;;;16.26;63.23;101030.75;5055477;28;45509;-73
2022/10/10 08:23:49;;;;;;;;;12.00;12.00;;;;;16.25;63.60;101026.31;5055810;28;45323;-73
2022/10/10 08:26:15;;;;;;;;;12.00;12.00;;;;;16.28;63.56;101024.28;5055763;28;45496;-73
2022/10/10 08:28:41;;;;;;;;;15.00;15.00;;;;;16.28;63.21;101032.41;5055796;28;45928;-72
2022/10/10 08:31:12;;;;;;;;;18.50;17.50;;;;;16.33;63.40;101061.88;5055463;28;45350;-74
2022/10/10 08:33:38;;;;;;;;;15.75;15.75;;;;;16.33;63.65;101074.53;5055705;28;45437;-73
2022/10/10 08:36:06;;;;;;;;;17.00;15.75;;;;;16.26;63.68;101065.94;5055132;28;45475;-73
2022/10/10 08:38:32;;;;;;;;;18.75;14.50;;;;;16.29;63.98;101073.84;5055621;28;45504;-73
2022/10/10 08:40:59;;;;;;;;;18.25;16.50;;;;;16.33;63.99;101070.00;5055462;28;45355;-72
2022/10/10 08:43:46;;;;;;;;;15.00;13.25;;;;;16.34;64.19;101074.41;5055589;28;45408;-73
2022/10/10 08:46:29;;;;;;;;;19.25;16.00;;;;;16.39;64.22;101068.72;5055384;28;45403;-73
2022/10/10 08:48:58;;;;;;;;;13.00;10.00;;;;;16.39;64.96;101066.91;5055208;28;45319;-73
2022/10/10 08:51:28;;;;;;;;;14.25;11.25;;;;;16.46;65.07;101081.75;5055023;28;45413;-72
2022/10/10 08:53:59;;;;;;;;;12.00;12.00;;;;;16.49;65.89;101094.22;5055344;28;45232;-73
2022/10/10 08:56:30;;;;;;;;;10.00;8.00;;;;;16.45;65.63;101085.44;5055151;28;45561;-71
2022/10/10 08:59:25;;;;;;;;;15.00;11.00;;;;;16.47;65.93;101085.34;5053577;28;46330;-72
2022/10/10 09:01:57;;;;;;;;;13.00;10.50;;;;;16.45;66.35;101077.31;5055007;28;45375;-72
2022/10/10 09:04:22;;;;;;;;;9.25;8.75;;;;;16.55;66.09;101077.59;5055097;28;45358;-73
2022/10/10 09:07:03;;;;;;;;;11.00;10.75;;;;;16.64;66.48;101086.00;5055329;28;45536;-72
2022/10/10 09:09:37;;;;;;;;;10.75;8.75;;;;;16.65;66.51;101084.16;5054148;28;45912;-73
2022/10/10 09:12:02;;;;;;;;;11.00;9.25;;;;;16.68;66.34;101089.38;5055251;28;45311;-72
2022/10/10 09:14:50;;;;;;;;;10.00;8.00;;;;;16.70;66.51;101097.38;5053207;28;45411;-73
2022/10/10 09:17:47;;;;;;;;;12.75;11.25;;;;;16.63;67.30;101103.22;5054314;28;45181;-73
2022/10/10 09:20:40;;;;;;;;;9.50;7.75;;;;;16.60;67.32;101108.78;5023711;28;45738;-73
2022/10/10 09:23:25;;;;;;;;;12.50;10.75;;;;;16.62;67.09;101112.31;5054608;28;45437;-71
2022/10/10 09:26:25;;;;;;;;;8.00;7.50;;;;;16.54;67.77;101100.19;5055023;28;45317;-72
2022/10/10 09:29:22;;;;;;;;;9.00;9.00;;;;;16.61;67.51;101098.84;5040129;28;45615;-78
2022/10/10 09:31:53;;;;;;;;;14.00;11.75;;;;;16.65;67.42;101103.13;5054064;28;46368;-73
2022/10/10 09:34:31;;;;;;;;;10.00;10.00;;;;;16.64;67.55;101112.22;5054767;28;45347;-73
2022/10/10 09:36:59;;;;;;;;;11.25;10.00;;;;;16.62;67.48;101112.31;5054643;28;45383;-73
2022/10/10 09:39:35;;;;;;;;;11.75;11.50;;;;;16.67;68.17;101138.22;5053076;28;45339;-73
2022/10/10 09:42:07;;;;;;;;;11.75;10.75;;;;;16.68;67.86;101139.94;5054722;28;45509;-74
2022/10/10 09:44:32;;;;;;;;;13.00;11.00;;;;;16.64;67.51;101125.75;5054441;28;45423;-72
2022/10/10 09:46:59;;;;;;;;;11.25;10.25;;;;;16.85;67.29;101147.81;5054943;28;45463;-72
2022/10/10 09:49:25;;;;;;;;;11.75;9.75;;;;;16.88;67.30;101144.94;5054633;28;45515;-73
2022/10/10 09:51:51;;;;;;;;;12.50;11.50;;;;;16.85;67.33;101146.00;5054694;28;45216;-73
2022/10/10 09:54:18;;;;;;;;;11.25;10.50;;;;;16.83;67.60;101157.91;5054846;28;45248;-73
2022/10/10 09:56:53;;;;;;;;;14.00;9.75;;;;;16.87;67.58;101162.13;5033723;28;45409;-73
2022/10/10 09:59:45;;;;;;;;;10.50;9.75;;;;;16.89;67.34;101161.09;5052307;28;45555;-72
2022/10/10 10:02:13;;;;;;;;;9.25;9.25;;;;;16.85;67.88;101164.94;5054076;28;45572;-73
2022/10/10 10:04:39;;;;;;;;;13.50;9.50;;;;;16.81;68.05;101160.72;5053921;28;45322;-73
2022/10/10 10:07:18;;;;;;;;;13.50;10.50;;;;;16.81;68.08;101162.56;5053831;28;45417;-71
2022/10/10 10:09:52;;;;;;;;;11.00;9.25;;;;;16.82;67.99;101167.00;5041301;28;45319;-72
2022/10/10 10:12:28;;;;;;;;;9.50;9.50;;;;;16.83;67.91;101163.31;5054049;28;45441;-74
2022/10/10 10:15:05;;;;;;;;;16.00;10.25;;;;;16.85;67.83;101158.66;5053844;28;45527;-70
2022/10/10 10:17:31;;;;;;;;;11.75;10.25;;;;;16.74;68.06;101151.25;5053943;28;45389;-73
2022/10/10 10:19:57;;;;;;;;;13.50;11.75;;;;;16.90;67.92;101170.06;5055171;28;45492;-73
2022/10/10 10:22:38;;;;;;;;;13.50;12.75;;;;;16.93;67.62;101153.59;5060671;28;45921;-73
2022/10/10 10:25:31;;;;;;;;;14.25;13.50;;;;;16.99;67.47;101172.19;5060688;28;45338;-78
2022/10/10 10:28:20;;;;;;;;;11.50;10.00;;;;;17.09;67.24;101164.31;5061200;28;45608;-78
2022/10/10 10:30:46;;;;;;;;;13.00;12.00;;;;;17.21;66.79;101171.63;5061125;28;45571;-82
2022/10/10 10:33:20;;;;;;;;;10.75;10.75;;;;;17.29;66.78;101180.09;5061301;28;46003;-80
2022/10/10 10:36:14;;;;;;;;;13.50;11.25;;;;;17.38;66.25;101187.63;5061654;28;45201;-79
2022/10/10 10:38:58;;;;;;;;;12.50;12.50;;;;;17.45;66.30;101186.22;5061414;28;45324;-78
2022/10/10 10:41:41;;;;;;;;;12.00;10.25;;;;;17.39;65.97;101155.00;5060935;28;45433;-78
2022/10/10 10:44:34;;;;;;;;;10.75;9.25;;;;;17.70;65.27;101191.75;5056503;28;47326;-81
2022/10/10 10:47:29;;;;;;;;;9.50;9.50;;;;;17.85;65.17;101191.69;5048116;28;45504;-77
2022/10/10 10:50:22;;;;;;;;;13.50;12.25;;;;;17.91;65.05;101207.53;5060724;28;45462;-76
2022/10/10 10:52:56;;;;;;;;;14.50;10.50;;;;;18.01;64.75;101206.81;5060985;28;45373;-77
2022/10/10 10:55:35;;;;;;;;;13.75;10.00;;;;;18.08;64.55;101208.13;5061044;28;46154;-79
2022/10/10 10:58:06;;;;;;;;;9.50;9.50;;;;;18.18;64.25;101216.47;5061484;28;45501;-79
2022/10/10 11:00:44;;;;;;;;;11.75;11.00;;;;;18.09;64.11;101196.28;5062812;28;45348;-77
2022/10/10 11:03:44;;;;;;;;;13.75;12.00;;;;;18.38;63.98;101215.06;5061966;28;45228;-76
2022/10/10 11:06:31;;;;;;;;;15.00;12.25;;;;;18.65;63.20;101225.84;5060204;28;45946;-76
2022/10/10 11:09:05;;;;;;;;;14.25;13.00;;;;;18.66;62.67;101194.97;5060237;28;45548;-76
2022/10/10 11:11:57;;;;;;;;;13.50;12.25;;;;;18.99;62.40;101222.41;5061966;28;45494;-79
2022/10/10 11:14:35;;;;;;;;;16.00;15.25;;;;;19.10;61.53;101206.19;5056174;28;45647;-78
2022/10/10 11:17:18;;;;;;;;;10.75;10.75;;;;;19.43;61.11;101223.69;5058744;28;47245;-78
2022/10/10 11:19:55;;;;;;;;;15.00;13.00;;;;;19.49;61.15;101210.50;5060521;28;45507;-78
2022/10/10 11:22:30;;;;;;;;;15.00;12.25;;;;;19.68;60.35;101234.47;5059763;28;45388;-78
2022/10/10 11:25:15;;;;;;;;;14.75;11.50;;;;;19.47;60.82;101230.63;5060951;28;45358;-78
2022/10/10 11:27:47;;;;;;;;;15.50;12.25;;;;;19.38;61.55;101234.91;5061259;28;46098;-78
2022/10/10 11:30:18;;;;;;;;;15.00;14.00;;;;;19.34;61.59;101233.38;5060632;28;45436;-78
2022/10/10 11:33:04;;;;;;;;;17.75;14.00;;;;;19.37;61.61;101229.59;5046622;28;45534;-78
2022/10/10 11:35:53;;;;;;;;;12.50;12.50;;;;;19.31;61.44;101214.56;5038265;28;45444;-78
2022/10/10 11:38:43;;;;;;;;;12.00;12.00;;;;;19.37;61.63;101235.88;5022497;28;46700;-78
2022/10/10 11:41:27;;;;;;;;;13.50;13.00;;;;;19.38;61.62;101244.91;5038171;28;45436;-80
2022/10/10 11:44:04;;;;;;;;;13.00;12.00;;;;;19.40;61.53;101249.25;5037417;28;45344;-78
2022/10/10 11:47:02;;;;;;;;;12.50;11.25;;;;;19.30;61.77;101247.34;5036409;28;45604;-80
2022/10/10 11:49:42;;;;;;;;;12.00;12.00;;;;;19.17;62.23;101250.94;5018573;28;47238;-78
2022/10/10 11:52:23;;;;;;;;;13.00;11.50;;;;;19.04;62.59;101238.38;5037197;28;45268;-78
2022/10/10 11:55:03;;;;;;;;;11.25;11.00;;;;;19.11;62.49;101258.69;5036829;28;45509;-77
2022/10/10 11:57:40;;;;;;;;;13.25;13.00;;;;;19.05;62.89;101251.88;5037582;28;45281;-77
2022/10/10 12:00:16;;;;;;;;;16.75;16.75;;;;;19.00;62.98;101251.31;5018858;28;48431;-77
2022/10/10 12:02:44;;;;;;;;;14.25;12.25;;;;;19.05;62.92;101256.44;5036606;28;45511;-79
2022/10/10 12:05:22;;;;;;;;;14.50;12.00;;;;;18.85;62.89;101208.97;5036191;28;45311;-78
2022/10/10 12:07:57;;;;;;;;;8.25;8.25;;;;;19.17;62.69;101250.09;5037474;28;45590;-77
2022/10/10 12:10:30;;;;;;;;;16.00;11.75;;;;;19.22;62.64;101251.47;5023290;28;47655;-79
2022/10/10 12:13:05;;;;;;;;;10.75;10.75;;;;;19.24;62.44;101246.78;5036128;28;45557;-78
2022/10/10 12:15:39;;;;;;;;;14.00;13.00;;;;;19.21;62.75;101259.75;5034539;28;45434;-77
2022/10/10 12:18:04;;;;;;;;;14.00;14.00;;;;;19.08;62.94;101243.47;5041785;28;45339;-78
2022/10/10 12:20:35;;;;;;;;;13.75;12.50;;;;;19.06;62.99;101229.13;5039225;28;45443;-79
2022/10/10 12:23:13;;;;;;;;;16.00;12.50;;;;;19.20;62.78;101264.34;5037216;28;45501;-78
2022/10/10 12:25:41;;;;;;;;;15.25;15.25;;;;;19.09;62.92;101249.78;5019270;28;45538;-77
2022/10/10 12:28:13;;;;;;;;;15.00;13.50;;;;;19.15;62.86;101263.78;5018672;28;46320;-77
2022/10/10 12:30:54;;;;;;;;;12.00;12.00;;;;;19.14;63.08;101269.34;5036961;28;45531;-79
2022/10/10 12:33:42;;;;;;;;;7.50;7.50;;;;;19.15;63.23;101277.38;5055702;28;45485;-77
2022/10/10 12:36:17;;;;;;;;;13.00;12.75;;;;;19.10;63.21;101270.53;5056074;28;45241;-78
2022/10/10 12:39:09;;;;;;;;;17.75;15.00;;;;;19.12;63.19;101271.31;5057653;28;45431;-77
2022/10/10 12:41:41;;;;;;;;;19.00;15.75;;;;;19.10;63.49;101274.13;5056390;28;46680;-79
2022/10/10 12:44:40;;;;;;;;;13.50;12.50;;;;;19.17;63.17;101278.13;5054351;28;45453;-78
2022/10/10 12:47:15;;;;;;;;;12.50;12.50;;;;;19.25;62.92;101273.00;5076629;27;45354;-76
2022/10/10 12:49:56;;;;;;;;;11.75;9.25;;;;;19.35;62.78;101269.59;5054839;28;45354;-77
2022/10/10 12:52:45;;;;;;;;;13.25;11.00;;;;;19.38;62.45;101253.06;5054894;28;45464;-76
2022/10/10 12:55:26;;;;;;;;;12.25;10.50;;;;;19.62;62.07;101253.97;5054221;28;45415;-76
2022/10/10 12:58:01;;;;;;;;;16.50;13.25;;;;;19.71;61.63;101244.25;5055840;28;45530;-78
2022/10/10 13:00:38;;;;;;;;;14.75;12.00;;;;;19.90;61.47;101264.50;5054888;28;45896;-77
2022/10/10 13:03:17;;;;;;;;;16.75;13.75;;;;;20.05;61.00;101258.88;5055551;28;45335;-77
2022/10/10 13:05:45;;;;;;;;;14.25;13.75;;;;;20.15;60.20;101260.75;5055591;28;45568;-76
2022/10/10 13:08:19;;;;;;;;;11.25;11.25;;;;;20.28;59.78;101257.94;5055989;28;45331;-76
2022/10/10 13:11:05;;;;;;;;;15.25;13.25;;;;;21.00;59.09;101267.59;5056614;28;45364;-78
2022/10/10 13:13:30;;;;;;;;;14.75;12.50;;;;;21.89;56.30;101266.53;5040780;28;46163;-77
2022/10/10 13:15:58;;;;;;;;;17.25;14.25;;;;;22.83;54.58;101266.53;5060495;28;45524;-78
2022/10/10 13:18:37;;;;;;;;;12.00;12.00;;;;;23.86;50.25;101258.94;5063894;28;45473;-77
2022/10/10 13:21:05;;;;;;;;;17.25;13.25;;;;;24.77;48.52;101258.38;5059297;28;46533;-77
2022/10/10 13:23:32;;;;;;;;;13.50;13.50;;;;;25.58;47.55;101261.34;5059273;28;46138;-76
2022/10/10 13:25:58;;;;;;;;;15.25;11.50;;;;;26.27;44.07;101264.31;5065059;28;45487;-78
2022/10/10 13:28:24;;;;;;;;;13.25;11.50;;;;;26.57;44.49;101251.13;5057147;28;45414;-78
2022/10/10 13:30:50;;;;;;;;;13.75;10.00;;;;;27.10;42.84;101259.22;5056216;28;46417;-77
2022/10/10 13:33:18;;;;;;;;;13.25;9.75;;;;;27.63;41.74;101249.81;5053591;28;47858;-77
2022/10/10 13:35:45;;;;;;;;;7.75;7.75;;;;;28.16;40.69;101247.47;5055574;28;45396;-78
2022/10/10 13:38:13;;;;;;;;;9.75;9.50;;;;;28.37;40.65;101257.13;5055057;28;45358;-78
2022/10/10 13:40:41;;;;;;;;;12.00;12.00;;;;;27.76;39.81;101239.13;5054916;28;45435;-77
2022/10/10 13:43:18;;;;;;;;;8.75;8.75;;;;;27.16;41.46;101271.44;5052868;28;47540;-78
2022/10/10 13:45:45;;;;;;;;;10.25;10.25;;;;;26.88;42.07;101270.78;5054420;28;45505;-77
2022/10/10 13:48:17;;;;;;;;;11.25;11.00;;;;;26.99;41.34;101260.34;5054479;28;45434;-77
2022/10/10 13:50:42;;;;;;;;;12.25;10.25;;;;;26.83;41.77;101267.63;5054280;28;45406;-77
2022/10/10 13:53:26;;;;;;;;;9.00;9.00;;;;;26.54;42.72;101274.31;5053816;28;45781;-76
2022/10/10 13:56:12;;;;;;;;;15.25;10.00;;;;;26.59;43.02;101268.34;5053747;28;45401;-77
2022/10/10 13:58:50;;;;;;;;;12.50;12.00;;;;;26.98;42.08;101279.78;5054594;28;45314;-78
2022/10/10 14:01:34;;;;;;;;;15.75;11.25;;;;;27.73;40.83;101272.56;5053912;28;45326;-78
2022/10/10 14:04:08;;;;;;;;;9.75;9.75;;;;;28.35;39.27;101261.94;5054186;28;46036;-78
2022/10/10 14:06:34;;;;;;;;;10.50;10.25;;;;;28.72;39.08;101272.44;5057497;28;45446;-77
2022/10/10 14:09:18;;;;;;;;;10.00;10.00;;;;;28.78;38.73;101269.00;5058059;28;45317;-78
2022/10/10 14:11:44;;;;;;;;;13.00;8.00;;;;;28.57;39.08;101269.53;5057553;28;45318;-78
2022/10/10 14:14:21;;;;;;;;;8.75;7.00;;;;;28.26;39.12;101274.88;5056846;28;45954;-79
2022/10/10 14:17:16;;;;;;;;;10.50;10.50;;;;;27.57;40.38;101276.09;5057673;28;45327;-77
2022/10/10 14:19:44;;;;;;;;;16.50;11.75;;;;;27.16;41.53;101282.44;5040285;28;45248;-77
2022/10/10 14:22:09;;;;;;;;;10.00;10.00;;;;;26.44;42.44;101268.06;5055380;28;45686;-77
2022/10/10 14:24:34;;;;;;;;;11.75;11.75;;;;;25.92;43.59;101283.53;5055250;28;46135;-80
2022/10/10 14:27:14;;;;;;;;;12.25;11.00;;;;;25.25;45.21;101304.03;5055947;28;45419;-78
2022/10/10 14:29:40;;;;;;;;;11.25;11.00;;;;;24.57;46.25;101273.19;5055978;28;45328;-77
2022/10/10 14:32:05;;;;;;;;;13.75;13.00;;;;;24.20;47.66;101292.22;5055231;28;45548;-76
2022/10/10 14:34:31;;;;;;;;;9.75;8.25;;;;;23.92;48.47;101298.56;5054349;28;45455;-78
2022/10/10 14:36:56;;;;;;;;;13.00;12.00;;;;;23.64;48.64;101292.06;5053805;28;45329;-77
2022/10/10 14:39:21;;;;;;;;;10.50;10.50;;;;;23.41;49.49;101288.63;5054311;28;45437;-75
2022/10/10 14:41:47;;;;;;;;;10.50;10.50;;;;;23.22;50.08;101315.97;5053762;28;45391;-78
2022/10/10 14:44:13;;;;;;;;;13.75;11.75;;;;;22.90;51.11;101314.22;5054665;28;45544;-78
2022/10/10 14:46:40;;;;;;;;;16.00;12.00;;;;;22.58;51.78;101305.22;5057523;28;45319;-77
2022/10/10 14:49:06;;;;;;;;;10.00;10.00;;;;;22.31;52.55;101303.00;5055045;28;45479;-76
2022/10/10 14:51:37;;;;;;;;;16.50;11.00;;;;;22.24;53.10;101321.78;5051989;28;46755;-77
2022/10/10 14:54:04;;;;;;;;;14.00;11.25;;;;;21.92;53.60;101320.91;5053530;28;45499;-78
2022/10/10 14:56:30;;;;;;;;;11.75;11.75;;;;;21.74;54.07;101303.34;5053333;28;45239;-76
2022/10/10 14:58:55;;;;;;;;;13.00;12.50;;;;;21.67;54.76;101324.81;5051144;28;45496;-76
2022/10/10 15:01:21;;;;;;;;;12.25;12.25;;;;;21.64;54.92;101319.59;5053413;28;45458;-79
2022/10/10 15:03:47;;;;;;;;;12.50;10.50;;;;;21.68;54.10;101303.84;5055865;28;45441;-79
2022/10/10 15:06:12;;;;;;;;;11.00;9.75;;;;;21.92;54.43;101333.69;5053896;28;45453;-80
2022/10/10 15:08:37;;;;;;;;;15.00;15.00;;;;;21.91;54.20;101332.81;5057191;28;45346;-80
2022/10/10 15:11:03;;;;;;;;;13.25;11.50;;;;;21.89;54.06;101338.41;5057036;28;45326;-80
2022/10/10 15:13:28;;;;;;;;;10.00;10.00;;;;;21.78;54.22;101341.16;5057218;28;45962;-79
2022/10/10 15:15:53;;;;;;;;;13.25;10.25;;;;;21.61;54.25;101329.91;5057355;28;45264;-79
2022/10/10 15:18:19;;;;;;;;;11.50;10.00;;;;;21.49;55.05;101335.38;5056086;28;45892;-80
2022/10/10 15:20:44;;;;;;;;;11.50;8.25;;;;;21.34;55.33;101343.97;5057449;28;45477;-75
2022/10/10 15:23:10;;;;;;;;;13.00;11.50;;;;;21.23;55.85;101353.00;5058241;28;45460;-77
2022/10/10 15:25:35;;;;;;;;;12.25;11.25;;;;;21.12;56.17;101359.28;5056480;28;45401;-81
2022/10/10 15:28:02;;;;;;;;;11.75;11.75;;;;;21.02;56.73;101362.88;5058568;28;45434;-82
2022/10/10 15:30:28;;;;;;;;;13.25;11.00;;;;;20.89;57.06;101359.41;5058842;28;45574;-80
2022/10/10 15:32:53;;;;;;;;;10.50;10.25;;;;;20.47;56.84;101293.69;5058496;28;45304;-81
2022/10/10 15:35:22;;;;;;;;;15.00;12.00;;;;;20.67;57.39;101328.38;5056760;28;45505;-81
2022/10/10 15:37:48;;;;;;;;;10.75;8.75;;;;;20.77;57.27;101342.13;5056056;28;45504;-79
2022/10/10 15:40:18;;;;;;;;;14.50;10.50;;;;;20.88;57.97;101354.94;5054734;28;46657;-81
2022/10/10 15:42:43;;;;;;;;;11.50;10.75;;;;;20.81;57.35;101338.19;5056904;28;46036;-81
2022/10/10 15:45:09;;;;;;;;;9.25;9.25;;;;;20.76;56.89;101330.38;5056811;28;45333;-82
2022/10/10 15:47:38;;;;;;;;;11.25;10.50;;;;;20.89;56.78;101349.34;5056123;28;45347;-81
2022/10/10 15:50:05;;;;;;;;;12.25;12.25;;;;;20.81;57.22;101335.47;5056539;28;45544;-82
2022/10/10 15:52:30;;;;;;;;;13.00;10.25;;;;;21.08;56.09;101370.56;5056802;28;45465;-79
2022/10/10 15:54:55;;;;;;;;;15.25;11.00;;;;;20.92;55.89;101338.22;5056970;28;45372;-80
2022/10/10 15:57:21;;;;;;;;;9.50;9.50;;;;;20.99;55.90;101353.09;5055499;28;45347;-79
2022/10/10 15:59:48;;;;;;;;;11.00;11.00;;;;;21.10;56.24;101374.91;5055174;28;46946;-80